createdAt,value
2018-09-04T00:01:13.319Z,85.83
2018-09-04T00:03:40.492Z,86.17
2018-09-04T00:06:07.757Z,86.63
2018-09-04T00:08:34.882Z,87.67
2018-09-04T00:11:02.204Z,87.25
2018-09-04T00:13:31.473Z,87.31
2018-09-04T00:15:58.585Z,87.30
2018-09-04T00:18:25.920Z,87.81
2018-09-04T00:20:53.032Z,88.24
2018-09-04T00:23:20.169Z,88.09
2018-09-04T00:25:47.307Z,87.74
2018-09-04T00:28:14.391Z,88.52
2018-09-04T00:30:41.661Z,88.27
2018-09-04T00:33:08.913Z,88.67
2018-09-04T00:35:36.035Z,88.37
2018-09-04T00:38:04.277Z,88.81
2018-09-04T00:40:31.482Z,88.34
2018-09-04T00:42:58.650Z,88.33
2018-09-04T00:45:25.776Z,88.99
2018-09-04T00:47:52.914Z,88.82
2018-09-04T00:50:20.000Z,88.72
2018-09-04T00:52:47.171Z,88.41
2018-09-04T00:55:15.235Z,89.01
2018-09-04T00:57:42.351Z,89.11
2018-09-04T01:00:09.476Z,89.55
2018-09-04T01:02:36.643Z,89.66
2018-09-04T01:05:03.809Z,88.84
2018-09-04T01:07:31.019Z,89.16
2018-09-04T01:09:58.175Z,88.82
2018-09-04T01:12:25.358Z,89.19
2018-09-04T01:14:55.023Z,89.03
2018-09-04T01:17:22.273Z,88.90
2018-09-04T01:19:49.637Z,89.26
2018-09-04T01:22:16.728Z,88.35
2018-09-04T01:24:43.883Z,89.23
2018-09-04T01:27:11.001Z,88.90
2018-09-04T01:29:38.128Z,89.30
2018-09-04T01:32:05.502Z,89.71
2018-09-04T01:34:32.615Z,89.34
2018-09-04T01:36:59.714Z,89.36
2018-09-04T01:39:26.953Z,89.40
2018-09-04T01:41:54.067Z,89.61
2018-09-04T01:44:21.273Z,89.32
2018-09-04T01:46:48.430Z,90.12
2018-09-04T01:49:15.533Z,89.89
2018-09-04T01:51:42.640Z,90.25
2018-09-04T01:54:09.817Z,90.00
2018-09-04T01:56:37.006Z,89.96
2018-09-04T01:59:04.215Z,90.09
2018-09-04T02:01:32.273Z,90.47
2018-09-04T02:03:59.382Z,90.22
2018-09-04T02:06:26.516Z,90.71
2018-09-04T02:08:53.755Z,90.12
2018-09-04T02:11:20.860Z,90.70
2018-09-04T02:13:47.993Z,89.94
2018-09-04T02:16:15.193Z,90.33
2018-09-04T02:18:42.301Z,90.26
2018-09-04T02:21:09.518Z,90.73
2018-09-04T02:23:36.668Z,90.72
2018-09-04T02:26:03.830Z,90.30
2018-09-04T02:28:31.001Z,90.26
2018-09-04T02:30:58.157Z,91.09
2018-09-04T02:33:25.340Z,90.97
2018-09-04T02:35:52.457Z,91.35
2018-09-04T02:38:19.638Z,91.44
2018-09-04T02:40:46.711Z,91.29
2018-09-04T02:43:13.829Z,92.02
2018-09-04T02:45:41.941Z,91.50
2018-09-04T02:48:09.058Z,91.74
2018-09-04T02:50:36.177Z,91.77
2018-09-04T02:53:03.343Z,91.73
2018-09-04T02:55:30.511Z,91.80
2018-09-04T02:57:57.734Z,91.69
2018-09-04T03:00:24.962Z,91.54
2018-09-04T03:02:52.059Z,92.09
2018-09-04T03:05:19.163Z,92.05
2018-09-04T03:07:46.303Z,92.11
2018-09-04T03:10:13.516Z,92.03
2018-09-04T03:12:40.639Z,92.59
2018-09-04T03:15:07.822Z,91.90
2018-09-04T03:17:34.926Z,91.95
2018-09-04T03:20:02.111Z,91.66
2018-09-04T03:22:29.341Z,92.01
2018-09-04T03:24:56.463Z,92.57
2018-09-04T03:27:23.596Z,92.17
2018-09-04T03:29:50.748Z,92.29
2018-09-04T03:32:17.835Z,92.04
2018-09-04T03:34:45.060Z,91.91
2018-09-04T03:37:12.287Z,91.81
2018-09-04T03:39:39.421Z,92.58
2018-09-04T03:42:06.525Z,92.92
2018-09-04T03:44:33.672Z,92.98
2018-09-04T03:47:00.857Z,93.03
2018-09-04T03:49:31.125Z,93.17
2018-09-04T03:51:58.346Z,92.99
2018-09-04T03:54:25.430Z,93.94
2018-09-04T03:56:52.527Z,93.54
2018-09-04T03:59:19.778Z,94.21
2018-09-04T04:01:46.942Z,94.38
2018-09-04T04:04:14.116Z,94.39
2018-09-04T04:06:41.512Z,94.23
2018-09-04T04:09:09.867Z,94.15
2018-09-04T04:11:37.051Z,93.83
2018-09-04T04:14:04.257Z,94.35
2018-09-04T04:16:31.383Z,94.04
2018-09-04T04:18:58.688Z,94.62
2018-09-04T04:21:25.840Z,94.17
2018-09-04T04:23:53.093Z,94.13
2018-09-04T04:26:20.271Z,94.46
2018-09-04T04:28:47.543Z,94.40
2018-09-04T04:31:14.643Z,94.69
2018-09-04T04:33:41.771Z,94.45
2018-09-04T04:36:09.058Z,94.61
2018-09-04T04:38:36.244Z,94.95
2018-09-04T04:41:03.349Z,94.98
2018-09-04T04:43:30.574Z,94.98
2018-09-04T04:45:57.677Z,95.75
2018-09-04T04:48:24.944Z,95.13
2018-09-04T04:50:52.126Z,95.84
2018-09-04T04:53:19.277Z,96.24
2018-09-04T04:55:46.372Z,96.18
2018-09-04T04:58:13.516Z,96.36
2018-09-04T05:00:40.707Z,96.05
2018-09-04T05:03:07.877Z,96.11
2018-09-04T05:05:35.020Z,96.55
2018-09-04T05:08:02.159Z,96.49
2018-09-04T05:10:29.368Z,96.88
2018-09-04T05:12:56.680Z,96.13
2018-09-04T05:15:23.856Z,96.40
2018-09-04T05:17:50.953Z,97.23
2018-09-04T05:20:20.833Z,96.90
2018-09-04T05:22:48.020Z,95.66
2018-09-04T05:25:17.348Z,94.83
2018-09-04T05:27:44.580Z,94.75
2018-09-04T05:30:11.779Z,94.61
2018-09-04T05:33:45.019Z,93.48
2018-09-04T05:36:12.388Z,90.95
2018-09-04T05:38:39.561Z,89.47
2018-09-04T05:41:06.979Z,89.84
2018-09-04T05:44:05.018Z,89.07
2018-09-04T05:46:38.105Z,88.44
2018-09-04T05:49:05.426Z,88.15
2018-09-04T05:51:32.532Z,86.63
2018-09-04T05:54:01.759Z,87.70
2018-09-04T05:56:28.869Z,86.32
2018-09-04T05:58:56.078Z,84.96
2018-09-04T06:01:23.393Z,84.76
2018-09-04T06:03:50.493Z,85.46
2018-09-04T06:06:17.593Z,83.38
2018-09-04T06:08:44.748Z,83.88
2018-09-04T06:11:11.924Z,83.70
2018-09-04T06:13:39.128Z,83.27
2018-09-04T06:16:06.305Z,82.05
2018-09-04T06:18:33.390Z,82.07
2018-09-04T06:21:00.501Z,82.55
2018-09-04T06:23:27.748Z,83.14
2018-09-04T06:25:54.932Z,82.57
2018-09-04T06:28:22.146Z,81.71
2018-09-04T06:30:49.353Z,82.78
2018-09-04T06:33:16.549Z,82.38
2018-09-04T06:35:43.696Z,82.04
2018-09-04T06:38:10.934Z,80.68
2018-09-04T06:40:38.044Z,79.12
2018-09-04T06:43:05.210Z,79.79
2018-09-04T06:45:32.367Z,79.87
2018-09-04T06:47:59.567Z,78.71
2018-09-04T06:50:26.764Z,78.51
2018-09-04T06:52:53.932Z,78.26
2018-09-04T06:55:21.048Z,79.07
2018-09-04T06:57:48.192Z,78.41
2018-09-04T07:00:15.777Z,76.98
2018-09-04T07:02:43.853Z,77.33
2018-09-04T07:05:11.743Z,76.10
2018-09-04T07:07:38.937Z,76.20
2018-09-04T07:10:06.124Z,75.79
2018-09-04T07:12:33.326Z,75.57
2018-09-04T07:15:00.642Z,76.79
2018-09-04T07:17:28.856Z,72.91
2018-09-04T07:19:55.996Z,72.74
2018-09-04T07:22:23.150Z,74.73
2018-09-04T07:24:50.357Z,73.10
2018-09-04T07:27:17.564Z,73.52
2018-09-04T07:29:44.773Z,71.94
2018-09-04T07:32:11.909Z,70.06
2018-09-04T07:34:39.021Z,69.76
2018-09-04T07:37:06.364Z,68.53
2018-09-04T07:39:33.540Z,69.34
2018-09-04T07:42:00.673Z,68.56
2018-09-04T07:44:27.844Z,66.79
2018-09-04T07:46:55.033Z,66.74
2018-09-04T07:49:22.248Z,66.47
2018-09-04T07:51:49.488Z,67.17
2018-09-04T07:54:16.619Z,64.76
2018-09-04T07:56:44.489Z,65.08
2018-09-04T07:59:11.647Z,67.31
2018-09-04T08:01:38.845Z,64.63
2018-09-04T08:04:06.058Z,63.58
2018-09-04T08:06:33.254Z,64.73
2018-09-04T08:09:00.397Z,64.12
2018-09-04T08:11:27.556Z,61.70
2018-09-04T08:14:05.248Z,62.05
2018-09-04T08:16:32.861Z,59.97
2018-09-04T08:18:59.960Z,63.77
2018-09-04T08:21:27.116Z,60.81
2018-09-04T08:23:54.316Z,58.38
2018-09-04T08:26:22.504Z,59.71
2018-09-04T08:28:49.768Z,57.91
2018-09-04T08:31:16.923Z,57.44
2018-09-04T08:33:44.052Z,57.21
2018-09-04T08:36:11.305Z,57.00
2018-09-04T08:38:44.278Z,56.99
2018-09-04T08:41:11.444Z,57.11
2018-09-04T08:43:38.645Z,56.79
2018-09-04T08:46:06.149Z,56.17
2018-09-04T08:48:33.390Z,57.75
2018-09-04T08:51:01.271Z,56.20
2018-09-04T08:53:28.464Z,54.18
2018-09-04T08:55:55.593Z,55.64
2018-09-04T08:58:22.855Z,53.19
2018-09-04T09:00:50.071Z,53.42
2018-09-04T09:03:17.336Z,50.86
2018-09-04T09:05:44.494Z,52.00
2018-09-04T09:08:15.521Z,50.10
2018-09-04T09:10:42.715Z,51.42
2018-09-04T09:13:10.113Z,49.27
2018-09-04T09:15:37.332Z,49.60
2018-09-04T09:18:04.520Z,50.30
2018-09-04T09:20:31.644Z,48.98
2018-09-04T09:22:58.796Z,50.09
2018-09-04T09:25:26.081Z,51.33
2018-09-04T09:27:53.315Z,50.88
2018-09-04T09:30:20.427Z,48.92
2018-09-04T09:32:47.590Z,47.19
2018-09-04T09:35:14.730Z,46.40
2018-09-04T09:37:41.977Z,44.44
2018-09-04T09:40:09.224Z,46.65
2018-09-04T09:42:36.373Z,45.77
2018-09-04T09:45:03.549Z,43.96
2018-09-04T09:47:30.744Z,43.08
2018-09-04T09:49:57.961Z,42.36
2018-09-04T09:52:25.152Z,44.80
2018-09-04T09:54:52.306Z,42.35
2018-09-04T09:57:19.598Z,43.69
2018-09-04T09:59:46.731Z,43.29
2018-09-04T10:02:18.233Z,42.22
2018-09-04T10:04:45.446Z,43.08
2018-09-04T10:07:12.593Z,43.95
2018-09-04T10:09:39.767Z,43.34
2018-09-04T10:12:07.009Z,41.73
2018-09-04T10:14:34.152Z,40.08
2018-09-04T10:17:01.452Z,39.00
2018-09-04T10:19:28.596Z,39.83
2018-09-04T10:21:55.775Z,36.23
2018-09-04T10:24:22.916Z,38.06
2018-09-04T10:26:50.072Z,37.82
2018-09-04T10:29:17.300Z,34.65
2018-09-04T10:31:44.487Z,36.45
2018-09-04T10:34:13.706Z,37.44
2018-09-04T10:36:43.790Z,38.44
2018-09-04T10:39:16.556Z,37.48
2018-09-04T10:41:43.798Z,36.45
2018-09-04T10:44:11.997Z,33.40
2018-09-04T10:46:39.107Z,34.42
2018-09-04T10:49:06.292Z,32.90
2018-09-04T10:51:33.420Z,30.72
2018-09-04T10:54:00.671Z,33.08
2018-09-04T10:56:27.863Z,33.56
2018-09-04T10:58:55.061Z,33.84
2018-09-04T11:01:22.243Z,32.84
2018-09-04T11:03:49.484Z,33.63
2018-09-04T11:06:16.688Z,35.57
2018-09-04T11:08:43.800Z,35.09
2018-09-04T11:11:10.974Z,33.88
2018-09-04T11:13:38.180Z,35.33
2018-09-04T11:16:05.568Z,33.64
2018-09-04T11:18:32.880Z,34.29
2018-09-04T11:20:59.995Z,33.82
2018-09-04T11:23:27.128Z,34.76
2018-09-04T11:25:54.322Z,35.80
2018-09-04T11:28:21.549Z,36.72
2018-09-04T11:30:48.770Z,33.08
2018-09-04T11:33:16.025Z,32.03
2018-09-04T11:35:43.141Z,34.42
2018-09-04T11:38:10.272Z,32.14
2018-09-04T11:40:37.602Z,33.49
2018-09-04T11:43:05.285Z,34.64
2018-09-04T11:45:32.408Z,34.46
2018-09-04T11:48:00.101Z,32.28
2018-09-04T11:50:27.374Z,34.83
2018-09-04T11:52:54.648Z,31.72
2018-09-04T11:55:21.983Z,33.51
2018-09-04T11:57:49.099Z,31.11
2018-09-04T12:00:21.228Z,33.54
2018-09-04T12:02:48.437Z,33.43
2018-09-04T12:05:15.664Z,33.16
2018-09-04T12:07:42.909Z,34.42
2018-09-04T12:10:10.052Z,35.14
2018-09-04T12:12:37.383Z,33.50
2018-09-04T12:15:04.604Z,34.33
2018-09-04T12:17:33.934Z,32.35
2018-09-04T12:20:08.724Z,33.04
2018-09-04T12:22:35.836Z,36.09
2018-09-04T12:25:03.030Z,34.67
2018-09-04T12:27:31.245Z,36.58
2018-09-04T12:29:58.608Z,37.48
2018-09-04T12:32:25.809Z,38.83
2018-09-04T12:34:52.976Z,37.80
2018-09-04T12:37:20.108Z,36.27
2018-09-04T12:39:52.906Z,37.39
2018-09-04T12:42:20.262Z,37.53
2018-09-04T12:44:47.523Z,36.05
2018-09-04T12:47:14.691Z,35.02
2018-09-04T12:49:41.806Z,33.81
2018-09-04T12:52:08.982Z,34.07
2018-09-04T12:54:37.134Z,37.18
2018-09-04T12:57:04.393Z,36.27
2018-09-04T12:59:32.052Z,36.50
2018-09-04T13:01:59.295Z,35.55
2018-09-04T13:04:26.574Z,36.13
2018-09-04T13:06:53.782Z,34.50
2018-09-04T13:09:24.612Z,36.32
2018-09-04T13:11:51.888Z,35.40
2018-09-04T13:14:19.495Z,35.85
2018-09-04T13:16:46.709Z,37.40
2018-09-04T13:19:15.256Z,35.91
2018-09-04T13:21:42.440Z,35.35
2018-09-04T13:24:11.750Z,35.89
2018-09-04T13:26:39.021Z,34.10
2018-09-04T13:29:06.581Z,34.51
2018-09-04T13:31:34.333Z,34.65
2018-09-04T13:34:02.284Z,36.30
2018-09-04T13:36:30.063Z,37.42
2018-09-04T13:38:57.945Z,37.63
2018-09-04T13:41:28.497Z,38.23
2018-09-04T13:43:56.983Z,38.31
2018-09-04T13:46:24.876Z,39.17
2018-09-04T13:48:53.728Z,40.14
2018-09-04T13:51:21.314Z,39.98
2018-09-04T13:53:48.727Z,41.19
2018-09-04T13:56:16.761Z,39.56
2018-09-04T13:58:44.310Z,38.83
2018-09-04T14:01:11.852Z,37.65
2018-09-04T14:03:39.728Z,38.06
2018-09-04T14:06:07.531Z,37.98
2018-09-04T14:08:34.866Z,38.11
2018-09-04T14:11:03.234Z,36.68
2018-09-04T14:13:30.495Z,36.84
2018-09-04T14:16:00.827Z,38.57
2018-09-04T14:18:28.061Z,38.78
2018-09-04T14:20:55.678Z,39.22
2018-09-04T14:23:23.156Z,40.86
2018-09-04T14:25:50.786Z,38.96
2018-09-04T14:28:40.971Z,40.17
2018-09-04T14:30:45.438Z,38.53
2018-09-04T14:33:12.652Z,39.08
2018-09-04T14:35:41.971Z,40.14
2018-09-04T14:38:09.489Z,39.40
2018-09-04T14:40:36.636Z,39.75
2018-09-04T14:43:03.878Z,40.91
2018-09-04T14:45:31.335Z,39.87
2018-09-04T14:47:58.601Z,39.49
2018-09-04T14:50:25.852Z,40.71
2018-09-04T14:52:53.004Z,41.57
2018-09-04T14:55:20.173Z,40.37
2018-09-04T14:57:47.572Z,40.57
2018-09-04T15:00:14.841Z,41.60
2018-09-04T15:02:41.954Z,40.63
2018-09-04T15:05:09.448Z,40.03
2018-09-04T15:07:36.612Z,40.46
2018-09-04T15:10:03.927Z,41.43
2018-09-04T15:12:31.276Z,43.16
2018-09-04T15:14:58.458Z,41.92
2018-09-04T15:17:25.608Z,40.40
2018-09-04T15:19:52.818Z,41.48
2018-09-04T15:22:20.130Z,41.80
2018-09-04T15:24:47.349Z,42.43
2018-09-04T15:27:14.569Z,42.83
2018-09-04T15:29:41.680Z,44.22
2018-09-04T15:32:09.174Z,43.38
2018-09-04T15:34:36.617Z,42.30
2018-09-04T15:37:03.969Z,43.37
2018-09-04T15:39:31.094Z,44.56
2018-09-04T15:41:58.318Z,43.98
2018-09-04T15:44:25.532Z,43.63
2018-09-04T15:46:52.856Z,42.08
2018-09-04T15:49:25.877Z,44.38
2018-09-04T15:51:53.040Z,44.54
2018-09-04T15:54:20.221Z,44.75
2018-09-04T15:56:47.530Z,44.50
2018-09-04T15:59:14.732Z,44.18
2018-09-04T16:01:41.917Z,44.13
2018-09-04T16:04:10.009Z,45.09
2018-09-04T16:06:37.712Z,44.29
2018-09-04T16:09:10.095Z,45.83
2018-09-04T16:11:37.490Z,47.35
2018-09-04T16:14:04.746Z,46.01
2018-09-04T16:16:31.968Z,46.44
2018-09-04T16:18:59.157Z,46.17
2018-09-04T16:21:26.329Z,44.81
2018-09-04T16:23:53.651Z,44.01
2018-09-04T16:26:20.875Z,44.70
2018-09-04T16:28:48.041Z,45.89
2018-09-04T16:31:15.387Z,45.85
2018-09-04T16:33:42.568Z,47.01
2018-09-04T16:36:10.221Z,44.60
2018-09-04T16:38:37.621Z,46.96
2018-09-04T16:41:04.813Z,43.87
2018-09-04T16:43:31.988Z,45.95
2018-09-04T16:45:59.326Z,46.56
2018-09-04T16:48:29.854Z,45.59
2018-09-04T16:50:57.420Z,47.50
2018-09-04T16:53:24.679Z,45.32
2018-09-04T16:55:51.882Z,46.32
2018-09-04T16:58:19.118Z,47.63
2018-09-04T17:00:46.466Z,45.89
2018-09-04T17:03:13.661Z,46.22
2018-09-04T17:05:41.032Z,48.12
2018-09-04T17:08:08.613Z,49.21
2018-09-04T17:10:35.807Z,46.00
2018-09-04T17:13:03.160Z,46.60
2018-09-04T17:15:30.482Z,46.32
2018-09-04T17:17:57.682Z,47.24
2018-09-04T17:20:24.972Z,46.66
2018-09-04T17:22:52.372Z,47.10
2018-09-04T17:25:20.727Z,50.45
2018-09-04T17:27:47.956Z,50.50
2018-09-04T17:30:15.219Z,49.36
2018-09-04T17:32:42.372Z,52.37
2018-09-04T17:35:09.541Z,53.38
2018-09-04T17:37:36.952Z,51.02
2018-09-04T17:40:04.288Z,53.14
2018-09-04T17:42:31.466Z,53.48
2018-09-04T17:44:59.012Z,52.33
2018-09-04T17:47:26.199Z,53.67
2018-09-04T17:49:53.488Z,52.73
2018-09-04T17:52:20.814Z,53.70
2018-09-04T17:54:48.065Z,54.08
2018-09-04T17:57:16.058Z,53.90
2018-09-04T17:59:43.249Z,54.33
2018-09-04T18:02:10.874Z,55.72
2018-09-04T18:04:38.720Z,55.90
2018-09-04T18:07:05.948Z,55.90
2018-09-04T18:09:33.105Z,57.18
2018-09-04T18:12:00.260Z,56.52
2018-09-04T18:14:27.571Z,58.21
2018-09-04T18:16:54.807Z,59.62
2018-09-04T18:19:22.029Z,58.54
2018-09-04T18:21:49.375Z,59.65
2018-09-04T18:24:16.551Z,58.27
2018-09-04T18:26:43.837Z,59.89
2018-09-04T18:29:11.308Z,59.05
2018-09-04T18:31:39.460Z,60.75
2018-09-04T18:34:06.684Z,60.85
2018-09-04T18:36:33.938Z,61.06
2018-09-04T18:39:01.453Z,60.04
2018-09-04T18:41:28.780Z,61.48
2018-09-04T18:43:56.177Z,60.59
2018-09-04T18:46:23.362Z,60.26
2018-09-04T18:48:53.847Z,61.47
2018-09-04T18:51:21.505Z,62.64
2018-09-04T18:53:48.731Z,61.51
2018-09-04T18:56:15.862Z,61.92
2018-09-04T18:58:43.165Z,62.98
2018-09-04T19:01:10.644Z,63.22
2018-09-04T19:03:38.336Z,63.72
2018-09-04T19:06:05.749Z,63.26
2018-09-04T19:08:32.909Z,64.35
2018-09-04T19:11:00.081Z,64.92
2018-09-04T19:13:27.301Z,66.34
2018-09-04T19:15:54.584Z,67.24
2018-09-04T19:18:21.849Z,67.66
2018-09-04T19:20:49.058Z,67.95
2018-09-04T19:23:16.201Z,68.68
2018-09-04T19:25:43.321Z,69.09
2018-09-04T19:28:11.019Z,69.79
2018-09-04T19:30:38.556Z,70.56
2018-09-04T19:33:05.744Z,70.33
2018-09-04T19:35:32.944Z,70.66
2018-09-04T19:38:00.080Z,71.51
2018-09-04T19:40:27.544Z,72.11
2018-09-04T19:42:54.853Z,71.99
2018-09-04T19:45:22.047Z,73.06
2018-09-04T19:47:49.340Z,73.55
2018-09-04T19:50:16.512Z,74.01
2018-09-04T19:52:43.755Z,73.96
2018-09-04T19:55:11.867Z,74.36
2018-09-04T19:57:40.060Z,75.20
2018-09-04T20:00:08.049Z,75.13
2018-09-04T20:02:35.211Z,75.54
2018-09-04T20:05:02.547Z,75.80
2018-09-04T20:07:29.887Z,76.98
2018-09-04T20:09:57.015Z,76.69
2018-09-04T20:12:24.312Z,76.35
2018-09-04T20:14:51.585Z,76.43
2018-09-04T20:17:18.888Z,76.98
2018-09-04T20:19:46.163Z,76.93
2018-09-04T20:22:13.342Z,77.92
2018-09-04T20:24:40.857Z,78.56
2018-09-04T20:27:08.668Z,78.93
2018-09-04T20:29:35.962Z,79.25
2018-09-04T20:32:03.353Z,79.14
2018-09-04T20:34:30.544Z,79.99
2018-09-04T20:36:57.790Z,80.24
2018-09-04T20:39:24.957Z,80.19
2018-09-04T20:41:52.336Z,80.57
2018-09-04T20:44:19.560Z,80.59
2018-09-04T20:46:46.769Z,81.47
2018-09-04T20:49:15.229Z,81.24
2018-09-04T20:51:42.376Z,81.58
2018-09-04T20:54:10.337Z,81.80
2018-09-04T20:56:38.089Z,81.51
2018-09-04T20:59:16.839Z,81.67
2018-09-04T21:01:55.499Z,82.19
2018-09-04T21:04:34.542Z,82.64
2018-09-04T21:07:00.856Z,83.04
2018-09-04T21:10:02.984Z,83.60
2018-09-04T21:12:30.326Z,83.89
2018-09-04T21:14:58.171Z,83.47
2018-09-04T21:17:25.471Z,84.74
2018-09-04T21:19:52.737Z,85.52
2018-09-04T21:22:19.956Z,86.08
2018-09-04T21:24:47.254Z,85.98
2018-09-04T21:27:14.690Z,85.68
2018-09-04T21:29:42.057Z,85.62
2018-09-04T21:32:09.735Z,85.47
2018-09-04T21:34:37.218Z,86.02
2018-09-04T21:37:04.788Z,86.61
2018-09-04T21:39:32.176Z,87.07
2018-09-04T21:41:59.466Z,86.72
2018-09-04T21:44:26.920Z,86.78
2018-09-04T21:46:54.204Z,87.43
2018-09-04T21:49:21.524Z,87.92
2018-09-04T21:51:48.841Z,87.72
2018-09-04T21:54:16.029Z,88.53
2018-09-04T21:56:43.202Z,88.43
2018-09-04T21:59:10.431Z,87.78
2018-09-04T22:01:38.073Z,88.38
2018-09-04T22:04:05.388Z,91.14
2018-09-04T22:06:32.859Z,90.74
2018-09-04T22:08:59.986Z,90.11
2018-09-04T22:11:27.584Z,91.65
2018-09-04T22:13:54.727Z,91.34
2018-09-04T22:16:21.987Z,91.37
2018-09-04T22:18:49.305Z,91.67
2018-09-04T22:21:16.427Z,91.67
2018-09-04T22:23:43.616Z,90.81
2018-09-04T22:26:10.792Z,91.30
2018-09-04T22:28:40.246Z,91.19
2018-09-04T22:31:07.635Z,92.26
2018-09-04T22:33:34.822Z,91.91
2018-09-04T22:36:01.985Z,92.24
2018-09-04T22:38:29.565Z,91.58
2018-09-04T22:40:56.892Z,92.15
2018-09-04T22:43:24.123Z,91.81
2018-09-04T22:45:51.593Z,91.17
2018-09-04T22:48:18.963Z,91.69
2018-09-04T22:50:52.044Z,91.62
2018-09-04T22:53:19.432Z,92.59
2018-09-04T22:55:46.985Z,91.96
2018-09-04T22:58:14.200Z,91.76
2018-09-04T23:00:41.539Z,92.33
2018-09-04T23:03:09.715Z,92.48
2018-09-04T23:05:37.112Z,92.66
2018-09-04T23:08:04.689Z,92.71
2018-09-04T23:10:31.880Z,92.51
2018-09-04T23:12:59.574Z,93.03
2018-09-04T23:15:26.900Z,93.38
2018-09-04T23:17:54.232Z,93.18
2018-09-04T23:20:21.509Z,94.27
2018-09-04T23:22:48.711Z,94.72
2018-09-04T23:25:15.864Z,94.70
2018-09-04T23:27:42.980Z,94.55
2018-09-04T23:30:10.746Z,95.02
2018-09-04T23:32:39.537Z,95.00
2018-09-04T23:35:06.897Z,95.29
2018-09-04T23:37:34.156Z,95.88
2018-09-04T23:40:01.520Z,95.59
2018-09-04T23:42:30.780Z,96.53
2018-09-04T23:44:58.165Z,97.06
2018-09-04T23:47:25.478Z,96.51
2018-09-04T23:49:52.664Z,96.75
2018-09-04T23:52:19.923Z,96.15
2018-09-04T23:54:47.232Z,97.15
2018-09-04T23:57:14.419Z,96.40
2018-09-04T23:59:41.715Z,95.72
